sensor_id;sensor_type;location;lat;lon;timestamp;P1;durP1;ratioP1;P2;durP2;ratioP2
75009;SDS011;63564;46.840;18.336;2023-03-01T00:01:14;23.27;;;11.32;;
75009;SDS011;63564;46.840;18.336;2023-03-01T00:04:16;23.95;;;10.30;;
75009;SDS011;63564;46.840;18.336;2023-03-01T00:07:17;20.27;;;10.50;;
75009;SDS011;63564;46.840;18.336;2023-03-01T00:10:17;23.70;;;10.27;;
75009;SDS011;63564;46.840;18.336;2023-03-01T00:13:18;23.00;;;9.70;;
75009;SDS011;63564;46.840;18.336;2023-03-01T00:16:19;24.40;;;10.50;;
75009;SDS011;63564;46.840;18.336;2023-03-01T00:19:22;22.65;;;10.45;;
75009;SDS011;63564;46.840;18.336;2023-03-01T00:22:22;26.37;;;11.67;;
75009;SDS011;63564;46.840;18.336;2023-03-01T00:25:23;26.93;;;11.87;;
75009;SDS011;63564;46.840;18.336;2023-03-01T00:28:23;22.83;;;10.73;;
75009;SDS011;63564;46.840;18.336;2023-03-01T00:31:25;21.70;;;10.30;;
75009;SDS011;63564;46.840;18.336;2023-03-01T00:34:29;24.50;;;11.50;;
75009;SDS011;63564;46.840;18.336;2023-03-01T00:37:29;23.33;;;10.83;;
75009;SDS011;63564;46.840;18.336;2023-03-01T00:40:30;23.43;;;10.73;;
75009;SDS011;63564;46.840;18.336;2023-03-01T00:43:32;20.60;;;9.90;;
75009;SDS011;63564;46.840;18.336;2023-03-01T00:46:36;21.15;;;10.35;;
75009;SDS011;63564;46.840;18.336;2023-03-01T00:49:37;21.42;;;10.43;;
75009;SDS011;63564;46.840;18.336;2023-03-01T00:52:37;22.80;;;10.80;;
75009;SDS011;63564;46.840;18.336;2023-03-01T00:55:38;22.20;;;11.40;;
75009;SDS011;63564;46.840;18.336;2023-03-01T00:58:38;24.67;;;11.55;;
75009;SDS011;63564;46.840;18.336;2023-03-01T01:01:39;22.52;;;10.50;;
75009;SDS011;63564;46.840;18.336;2023-03-01T01:04:39;23.00;;;10.80;;
75009;SDS011;63564;46.840;18.336;2023-03-01T01:07:40;22.60;;;10.90;;
75009;SDS011;63564;46.840;18.336;2023-03-01T01:10:42;24.53;;;11.93;;
75009;SDS011;63564;46.840;18.336;2023-03-01T01:13:44;25.05;;;11.35;;
75009;SDS011;63564;46.840;18.336;2023-03-01T01:16:46;24.15;;;11.00;;
75009;SDS011;63564;46.840;18.336;2023-03-01T01:19:46;27.08;;;12.63;;
75009;SDS011;63564;46.840;18.336;2023-03-01T01:22:47;24.30;;;10.43;;
75009;SDS011;63564;46.840;18.336;2023-03-01T01:25:48;24.63;;;11.93;;
75009;SDS011;63564;46.840;18.336;2023-03-01T01:28:48;23.33;;;11.17;;
75009;SDS011;63564;46.840;18.336;2023-03-01T01:31:49;24.90;;;11.73;;
75009;SDS011;63564;46.840;18.336;2023-03-01T01:34:49;25.85;;;12.77;;
75009;SDS011;63564;46.840;18.336;2023-03-01T01:37:50;26.03;;;12.13;;
75009;SDS011;63564;46.840;18.336;2023-03-01T01:40:50;27.17;;;12.70;;
75009;SDS011;63564;46.840;18.336;2023-03-01T01:47:14;25.75;;;12.00;;
75009;SDS011;63564;46.840;18.336;2023-03-01T01:50:18;29.73;;;13.52;;
75009;SDS011;63564;46.840;18.336;2023-03-01T01:53:19;25.70;;;11.93;;
75009;SDS011;63564;46.840;18.336;2023-03-01T01:56:20;27.83;;;13.70;;
75009;SDS011;63564;46.840;18.336;2023-03-01T01:59:26;26.73;;;13.40;;
75009;SDS011;63564;46.840;18.336;2023-03-01T02:02:28;29.20;;;12.98;;
75009;SDS011;63564;46.840;18.336;2023-03-01T02:05:40;31.27;;;13.63;;
75009;SDS011;63564;46.840;18.336;2023-03-01T02:08:48;26.97;;;12.73;;
75009;SDS011;63564;46.840;18.336;2023-03-01T02:11:50;26.95;;;12.35;;
75009;SDS011;63564;46.840;18.336;2023-03-01T02:14:51;24.83;;;11.30;;
75009;SDS011;63564;46.840;18.336;2023-03-01T02:17:52;26.33;;;11.13;;
75009;SDS011;63564;46.840;18.336;2023-03-01T02:21:00;26.27;;;11.75;;
75009;SDS011;63564;46.840;18.336;2023-03-01T02:30:53;22.87;;;10.33;;
75009;SDS011;63564;46.840;18.336;2023-03-01T02:34:13;27.42;;;11.50;;
75009;SDS011;63564;46.840;18.336;2023-03-01T02:37:17;26.67;;;12.32;;
75009;SDS011;63564;46.840;18.336;2023-03-01T02:40:24;26.67;;;11.65;;
75009;SDS011;63564;46.840;18.336;2023-03-01T02:43:26;29.87;;;12.67;;
75009;SDS011;63564;46.840;18.336;2023-03-01T02:46:29;30.48;;;12.57;;
75009;SDS011;63564;46.840;18.336;2023-03-01T02:49:31;28.83;;;12.30;;
75009;SDS011;63564;46.840;18.336;2023-03-01T02:53:08;30.52;;;12.85;;
75009;SDS011;63564;46.840;18.336;2023-03-01T02:56:01;26.73;;;12.37;;
75009;SDS011;63564;46.840;18.336;2023-03-01T02:59:02;26.20;;;12.13;;
75009;SDS011;63564;46.840;18.336;2023-03-01T03:02:03;28.13;;;11.68;;
75009;SDS011;63564;46.840;18.336;2023-03-01T03:05:17;24.70;;;11.50;;
75009;SDS011;63564;46.840;18.336;2023-03-01T03:08:19;26.90;;;12.00;;
75009;SDS011;63564;46.840;18.336;2023-03-01T03:11:23;28.13;;;12.00;;
75009;SDS011;63564;46.840;18.336;2023-03-01T03:14:24;26.73;;;11.63;;
75009;SDS011;63564;46.840;18.336;2023-03-01T03:17:24;28.37;;;11.57;;
75009;SDS011;63564;46.840;18.336;2023-03-01T03:20:26;25.37;;;11.43;;
75009;SDS011;63564;46.840;18.336;2023-03-01T03:23:27;31.35;;;12.77;;
75009;SDS011;63564;46.840;18.336;2023-03-01T03:26:29;28.98;;;12.38;;
75009;SDS011;63564;46.840;18.336;2023-03-01T03:29:30;26.73;;;11.90;;
75009;SDS011;63564;46.840;18.336;2023-03-01T03:32:30;25.33;;;12.23;;
75009;SDS011;63564;46.840;18.336;2023-03-01T03:35:32;26.08;;;10.98;;
75009;SDS011;63564;46.840;18.336;2023-03-01T03:38:34;25.03;;;10.50;;
75009;SDS011;63564;46.840;18.336;2023-03-01T03:41:34;24.80;;;11.00;;
75009;SDS011;63564;46.840;18.336;2023-03-01T03:44:35;23.33;;;10.90;;
75009;SDS011;63564;46.840;18.336;2023-03-01T03:47:36;24.80;;;11.47;;
75009;SDS011;63564;46.840;18.336;2023-03-01T03:50:37;25.17;;;10.63;;
75009;SDS011;63564;46.840;18.336;2023-03-01T03:53:39;24.47;;;10.77;;
75009;SDS011;63564;46.840;18.336;2023-03-01T03:56:40;25.05;;;10.63;;
75009;SDS011;63564;46.840;18.336;2023-03-01T03:59:40;25.63;;;10.90;;
75009;SDS011;63564;46.840;18.336;2023-03-01T04:02:41;27.33;;;11.30;;
75009;SDS011;63564;46.840;18.336;2023-03-01T04:05:42;26.17;;;11.20;;
75009;SDS011;63564;46.840;18.336;2023-03-01T04:08:42;24.10;;;10.63;;
75009;SDS011;63564;46.840;18.336;2023-03-01T04:11:43;24.90;;;11.57;;
75009;SDS011;63564;46.840;18.336;2023-03-01T04:14:43;23.30;;;11.50;;
75009;SDS011;63564;46.840;18.336;2023-03-01T04:17:44;22.63;;;11.33;;
75009;SDS011;63564;46.840;18.336;2023-03-01T04:20:46;25.95;;;11.73;;
75009;SDS011;63564;46.840;18.336;2023-03-01T04:23:47;26.57;;;11.90;;
75009;SDS011;63564;46.840;18.336;2023-03-01T04:26:48;25.88;;;11.82;;
75009;SDS011;63564;46.840;18.336;2023-03-01T04:29:48;28.37;;;13.00;;
75009;SDS011;63564;46.840;18.336;2023-03-01T04:32:49;27.53;;;11.67;;
75009;SDS011;63564;46.840;18.336;2023-03-01T04:35:50;28.42;;;12.50;;
75009;SDS011;63564;46.840;18.336;2023-03-01T04:38:51;25.80;;;11.48;;
75009;SDS011;63564;46.840;18.336;2023-03-01T04:41:51;26.35;;;11.77;;
75009;SDS011;63564;46.840;18.336;2023-03-01T04:44:52;25.60;;;11.47;;
75009;SDS011;63564;46.840;18.336;2023-03-01T04:47:53;31.17;;;13.67;;
75009;SDS011;63564;46.840;18.336;2023-03-01T04:50:53;30.45;;;13.18;;
75009;SDS011;63564;46.840;18.336;2023-03-01T04:53:54;31.57;;;14.63;;
75009;SDS011;63564;46.840;18.336;2023-03-01T04:56:54;32.70;;;13.37;;
75009;SDS011;63564;46.840;18.336;2023-03-01T04:59:55;30.77;;;13.25;;
75009;SDS011;63564;46.840;18.336;2023-03-01T05:02:56;32.57;;;13.83;;
75009;SDS011;63564;46.840;18.336;2023-03-01T05:05:59;30.90;;;14.38;;
75009;SDS011;63564;46.840;18.336;2023-03-01T05:08:59;28.92;;;13.35;;
75009;SDS011;63564;46.840;18.336;2023-03-01T05:12:00;30.30;;;13.27;;
75009;SDS011;63564;46.840;18.336;2023-03-01T05:15:00;31.33;;;13.93;;
75009;SDS011;63564;46.840;18.336;2023-03-01T05:18:00;31.00;;;13.87;;
75009;SDS011;63564;46.840;18.336;2023-03-01T05:21:02;32.60;;;14.70;;
75009;SDS011;63564;46.840;18.336;2023-03-01T05:24:07;31.77;;;14.13;;
75009;SDS011;63564;46.840;18.336;2023-03-01T05:27:11;33.65;;;14.55;;
75009;SDS011;63564;46.840;18.336;2023-03-01T05:30:12;33.87;;;14.87;;
75009;SDS011;63564;46.840;18.336;2023-03-01T05:33:15;33.25;;;14.93;;
75009;SDS011;63564;46.840;18.336;2023-03-01T05:36:16;33.73;;;15.27;;
75009;SDS011;63564;46.840;18.336;2023-03-01T05:39:22;31.35;;;14.88;;
75009;SDS011;63564;46.840;18.336;2023-03-01T05:42:23;32.17;;;14.97;;
75009;SDS011;63564;46.840;18.336;2023-03-01T05:45:24;31.77;;;13.88;;
75009;SDS011;63564;46.840;18.336;2023-03-01T05:48:26;29.27;;;12.95;;
75009;SDS011;63564;46.840;18.336;2023-03-01T05:51:26;29.63;;;13.50;;
75009;SDS011;63564;46.840;18.336;2023-03-01T05:54:26;29.35;;;13.02;;
75009;SDS011;63564;46.840;18.336;2023-03-01T05:57:28;29.60;;;12.20;;
75009;SDS011;63564;46.840;18.336;2023-03-01T06:00:29;27.98;;;13.13;;
75009;SDS011;63564;46.840;18.336;2023-03-01T06:03:30;32.33;;;14.03;;
75009;SDS011;63564;46.840;18.336;2023-03-01T06:06:34;30.33;;;14.23;;
75009;SDS011;63564;46.840;18.336;2023-03-01T06:09:35;29.67;;;14.00;;
75009;SDS011;63564;46.840;18.336;2023-03-01T06:12:36;32.40;;;14.20;;
75009;SDS011;63564;46.840;18.336;2023-03-01T06:15:37;34.58;;;14.45;;
75009;SDS011;63564;46.840;18.336;2023-03-01T06:18:38;33.10;;;14.93;;
75009;SDS011;63564;46.840;18.336;2023-03-01T06:21:38;34.70;;;15.02;;
75009;SDS011;63564;46.840;18.336;2023-03-01T06:24:39;30.37;;;14.10;;
75009;SDS011;63564;46.840;18.336;2023-03-01T06:27:39;32.57;;;14.20;;
75009;SDS011;63564;46.840;18.336;2023-03-01T06:30:40;56.53;;;21.42;;
75009;SDS011;63564;46.840;18.336;2023-03-01T06:33:41;36.83;;;18.27;;
75009;SDS011;63564;46.840;18.336;2023-03-01T06:36:41;47.00;;;27.00;;
75009;SDS011;63564;46.840;18.336;2023-03-01T06:39:42;50.33;;;28.23;;
75009;SDS011;63564;46.840;18.336;2023-03-01T06:42:43;33.40;;;17.23;;
75009;SDS011;63564;46.840;18.336;2023-03-01T06:45:49;31.88;;;15.48;;
75009;SDS011;63564;46.840;18.336;2023-03-01T06:48:49;46.75;;;25.98;;
75009;SDS011;63564;46.840;18.336;2023-03-01T06:51:50;35.30;;;18.63;;
75009;SDS011;63564;46.840;18.336;2023-03-01T06:54:50;30.10;;;13.40;;
75009;SDS011;63564;46.840;18.336;2023-03-01T06:57:55;28.73;;;13.27;;
75009;SDS011;63564;46.840;18.336;2023-03-01T07:00:56;31.60;;;13.05;;
75009;SDS011;63564;46.840;18.336;2023-03-01T07:03:57;27.43;;;13.03;;
75009;SDS011;63564;46.840;18.336;2023-03-01T07:06:57;27.73;;;12.43;;
75009;SDS011;63564;46.840;18.336;2023-03-01T07:09:57;31.23;;;13.27;;
75009;SDS011;63564;46.840;18.336;2023-03-01T07:12:58;29.47;;;13.57;;
75009;SDS011;63564;46.840;18.336;2023-03-01T07:15:59;31.08;;;13.48;;
75009;SDS011;63564;46.840;18.336;2023-03-01T07:18:59;29.47;;;13.43;;
75009;SDS011;63564;46.840;18.336;2023-03-01T07:22:00;32.20;;;13.37;;
75009;SDS011;63564;46.840;18.336;2023-03-01T07:25:00;30.30;;;13.27;;
75009;SDS011;63564;46.840;18.336;2023-03-01T07:28:00;25.70;;;13.40;;
75009;SDS011;63564;46.840;18.336;2023-03-01T07:31:02;28.35;;;12.85;;
75009;SDS011;63564;46.840;18.336;2023-03-01T07:34:02;31.67;;;14.07;;
75009;SDS011;63564;46.840;18.336;2023-03-01T07:37:03;30.07;;;14.47;;
75009;SDS011;63564;46.840;18.336;2023-03-01T07:40:04;41.75;;;18.17;;
75009;SDS011;63564;46.840;18.336;2023-03-01T07:43:05;40.77;;;20.00;;
75009;SDS011;63564;46.840;18.336;2023-03-01T07:46:05;34.78;;;15.70;;
75009;SDS011;63564;46.840;18.336;2023-03-01T07:49:06;31.13;;;14.53;;
75009;SDS011;63564;46.840;18.336;2023-03-01T07:52:06;33.63;;;17.43;;
75009;SDS011;63564;46.840;18.336;2023-03-01T07:55:10;35.35;;;16.90;;
75009;SDS011;63564;46.840;18.336;2023-03-01T07:58:10;35.93;;;18.33;;
75009;SDS011;63564;46.840;18.336;2023-03-01T08:01:11;46.47;;;21.03;;
75009;SDS011;63564;46.840;18.336;2023-03-01T08:04:14;40.53;;;19.25;;
75009;SDS011;63564;46.840;18.336;2023-03-01T08:07:14;43.27;;;20.70;;
75009;SDS011;63564;46.840;18.336;2023-03-01T08:10:15;37.90;;;16.80;;
75009;SDS011;63564;46.840;18.336;2023-03-01T08:13:15;33.65;;;17.27;;
75009;SDS011;63564;46.840;18.336;2023-03-01T08:16:16;43.30;;;19.87;;
75009;SDS011;63564;46.840;18.336;2023-03-01T08:19:16;33.73;;;15.60;;
75009;SDS011;63564;46.840;18.336;2023-03-01T08:22:17;28.63;;;13.20;;
75009;SDS011;63564;46.840;18.336;2023-03-01T08:25:17;28.03;;;13.73;;
75009;SDS011;63564;46.840;18.336;2023-03-01T08:28:18;25.23;;;13.03;;
75009;SDS011;63564;46.840;18.336;2023-03-01T08:31:26;32.03;;;13.87;;
75009;SDS011;63564;46.840;18.336;2023-03-01T08:34:29;32.60;;;16.23;;
75009;SDS011;63564;46.840;18.336;2023-03-01T08:37:31;63.30;;;29.10;;
75009;SDS011;63564;46.840;18.336;2023-03-01T08:40:33;58.05;;;26.85;;
75009;SDS011;63564;46.840;18.336;2023-03-01T08:43:33;49.80;;;24.40;;
75009;SDS011;63564;46.840;18.336;2023-03-01T08:46:37;43.97;;;20.73;;
75009;SDS011;63564;46.840;18.336;2023-03-01T08:49:40;42.22;;;20.75;;
75009;SDS011;63564;46.840;18.336;2023-03-01T08:52:40;35.37;;;18.93;;
75009;SDS011;63564;46.840;18.336;2023-03-01T08:55:41;32.43;;;16.67;;
75009;SDS011;63564;46.840;18.336;2023-03-01T08:58:44;42.77;;;19.73;;
75009;SDS011;63564;46.840;18.336;2023-03-01T09:01:46;43.25;;;20.30;;
75009;SDS011;63564;46.840;18.336;2023-03-01T09:04:47;29.03;;;15.10;;
75009;SDS011;63564;46.840;18.336;2023-03-01T09:07:47;29.03;;;15.00;;
75009;SDS011;63564;46.840;18.336;2023-03-01T09:10:47;28.90;;;15.20;;
75009;SDS011;63564;46.840;18.336;2023-03-01T09:13:48;23.42;;;13.05;;
75009;SDS011;63564;46.840;18.336;2023-03-01T09:16:49;31.10;;;16.00;;
75009;SDS011;63564;46.840;18.336;2023-03-01T09:19:50;40.22;;;20.60;;
75009;SDS011;63564;46.840;18.336;2023-03-01T09:22:51;38.50;;;18.67;;
75009;SDS011;63564;46.840;18.336;2023-03-01T09:25:52;35.07;;;15.83;;
75009;SDS011;63564;46.840;18.336;2023-03-01T09:28:53;29.83;;;16.67;;
75009;SDS011;63564;46.840;18.336;2023-03-01T09:31:55;40.55;;;21.45;;
75009;SDS011;63564;46.840;18.336;2023-03-01T09:34:55;27.77;;;13.80;;
75009;SDS011;63564;46.840;18.336;2023-03-01T09:38:05;26.30;;;14.23;;
75009;SDS011;63564;46.840;18.336;2023-03-01T09:44:32;22.67;;;11.73;;
75009;SDS011;63564;46.840;18.336;2023-03-01T09:47:35;24.02;;;13.75;;
75009;SDS011;63564;46.840;18.336;2023-03-01T09:50:38;27.20;;;12.73;;
75009;SDS011;63564;46.840;18.336;2023-03-01T09:53:40;24.40;;;11.52;;
75009;SDS011;63564;46.840;18.336;2023-03-01T09:56:41;23.83;;;11.40;;
75009;SDS011;63564;46.840;18.336;2023-03-01T10:06:11;19.08;;;9.88;;
75009;SDS011;63564;46.840;18.336;2023-03-01T10:09:21;20.52;;;10.57;;
75009;SDS011;63564;46.840;18.336;2023-03-01T10:12:22;20.23;;;9.43;;
75009;SDS011;63564;46.840;18.336;2023-03-01T10:15:34;19.60;;;10.48;;
75009;SDS011;63564;46.840;18.336;2023-03-01T10:18:38;19.73;;;10.70;;
75009;SDS011;63564;46.840;18.336;2023-03-01T10:21:45;19.65;;;10.25;;
75009;SDS011;63564;46.840;18.336;2023-03-01T10:24:45;20.52;;;9.02;;
75009;SDS011;63564;46.840;18.336;2023-03-01T10:27:53;17.70;;;9.50;;
75009;SDS011;63564;46.840;18.336;2023-03-01T10:30:59;17.63;;;8.77;;
75009;SDS011;63564;46.840;18.336;2023-03-01T10:34:00;18.25;;;9.43;;
75009;SDS011;63564;46.840;18.336;2023-03-01T10:40:14;19.27;;;10.02;;
75009;SDS011;63564;46.840;18.336;2023-03-01T10:43:14;17.73;;;9.18;;
75009;SDS011;63564;46.840;18.336;2023-03-01T10:49:28;21.65;;;8.88;;
75009;SDS011;63564;46.840;18.336;2023-03-01T10:52:35;19.77;;;9.33;;
75009;SDS011;63564;46.840;18.336;2023-03-01T10:55:38;24.80;;;9.75;;
75009;SDS011;63564;46.840;18.336;2023-03-01T10:58:40;17.63;;;9.00;;
75009;SDS011;63564;46.840;18.336;2023-03-01T11:05:24;19.13;;;9.65;;
75009;SDS011;63564;46.840;18.336;2023-03-01T11:11:34;20.42;;;10.32;;
75009;SDS011;63564;46.840;18.336;2023-03-01T11:14:38;18.57;;;8.93;;
75009;SDS011;63564;46.840;18.336;2023-03-01T11:17:50;25.55;;;9.93;;
75009;SDS011;63564;46.840;18.336;2023-03-01T11:20:51;20.40;;;10.00;;
75009;SDS011;63564;46.840;18.336;2023-03-01T11:23:55;16.58;;;8.65;;
75009;SDS011;63564;46.840;18.336;2023-03-01T11:26:57;18.33;;;9.65;;
75009;SDS011;63564;46.840;18.336;2023-03-01T11:36:51;21.33;;;10.13;;
75009;SDS011;63564;46.840;18.336;2023-03-01T11:40:00;17.58;;;9.63;;
75009;SDS011;63564;46.840;18.336;2023-03-01T11:43:23;16.98;;;9.45;;
75009;SDS011;63564;46.840;18.336;2023-03-01T11:49:49;19.20;;;9.32;;
75009;SDS011;63564;46.840;18.336;2023-03-01T11:53:21;21.53;;;10.00;;
75009;SDS011;63564;46.840;18.336;2023-03-01T11:56:43;20.90;;;10.50;;
75009;SDS011;63564;46.840;18.336;2023-03-01T12:00:36;27.75;;;11.68;;
75009;SDS011;63564;46.840;18.336;2023-03-01T12:13:05;19.17;;;9.95;;
75009;SDS011;63564;46.840;18.336;2023-03-01T12:23:39;23.02;;;11.13;;
75009;SDS011;63564;46.840;18.336;2023-03-01T12:26:50;20.07;;;10.20;;
75009;SDS011;63564;46.840;18.336;2023-03-01T12:33:19;17.40;;;9.00;;
75009;SDS011;63564;46.840;18.336;2023-03-01T12:37:31;18.05;;;8.85;;
75009;SDS011;63564;46.840;18.336;2023-03-01T12:50:42;18.50;;;9.68;;
75009;SDS011;63564;46.840;18.336;2023-03-01T12:53:47;20.25;;;9.85;;
75009;SDS011;63564;46.840;18.336;2023-03-01T12:56:50;19.38;;;9.70;;
75009;SDS011;63564;46.840;18.336;2023-03-01T13:06:44;21.23;;;10.57;;
75009;SDS011;63564;46.840;18.336;2023-03-01T13:15:56;32.33;;;16.20;;
75009;SDS011;63564;46.840;18.336;2023-03-01T13:19:12;28.63;;;13.80;;
75009;SDS011;63564;46.840;18.336;2023-03-01T13:22:25;35.37;;;18.00;;
75009;SDS011;63564;46.840;18.336;2023-03-01T13:25:31;28.23;;;15.95;;
75009;SDS011;63564;46.840;18.336;2023-03-01T13:28:36;134.35;;;66.43;;
75009;SDS011;63564;46.840;18.336;2023-03-01T13:34:47;73.82;;;40.85;;
75009;SDS011;63564;46.840;18.336;2023-03-01T13:37:48;71.07;;;38.33;;
75009;SDS011;63564;46.840;18.336;2023-03-01T13:43:49;68.53;;;34.43;;
75009;SDS011;63564;46.840;18.336;2023-03-01T13:46:51;73.55;;;42.05;;
75009;SDS011;63564;46.840;18.336;2023-03-01T13:50:00;92.80;;;49.63;;
75009;SDS011;63564;46.840;18.336;2023-03-01T13:53:03;56.70;;;29.67;;
75009;SDS011;63564;46.840;18.336;2023-03-01T13:56:11;43.30;;;25.08;;
75009;SDS011;63564;46.840;18.336;2023-03-01T13:59:16;33.75;;;18.73;;
75009;SDS011;63564;46.840;18.336;2023-03-01T14:02:18;26.17;;;14.70;;
75009;SDS011;63564;46.840;18.336;2023-03-01T14:05:19;20.73;;;11.73;;
75009;SDS011;63564;46.840;18.336;2023-03-01T14:08:24;29.73;;;13.90;;
75009;SDS011;63564;46.840;18.336;2023-03-01T14:14:54;23.00;;;11.75;;
75009;SDS011;63564;46.840;18.336;2023-03-01T14:18:04;32.60;;;14.80;;
75009;SDS011;63564;46.840;18.336;2023-03-01T14:21:13;22.20;;;10.40;;
75009;SDS011;63564;46.840;18.336;2023-03-01T14:24:20;24.77;;;11.85;;
75009;SDS011;63564;46.840;18.336;2023-03-01T14:27:23;26.42;;;12.90;;
75009;SDS011;63564;46.840;18.336;2023-03-01T14:33:43;28.90;;;13.73;;
75009;SDS011;63564;46.840;18.336;2023-03-01T14:36:54;30.40;;;13.50;;
75009;SDS011;63564;46.840;18.336;2023-03-01T14:39:55;32.40;;;14.30;;
75009;SDS011;63564;46.840;18.336;2023-03-01T14:42:58;29.27;;;14.23;;
75009;SDS011;63564;46.840;18.336;2023-03-01T14:46:00;29.70;;;14.43;;
75009;SDS011;63564;46.840;18.336;2023-03-01T14:49:02;32.38;;;15.27;;
75009;SDS011;63564;46.840;18.336;2023-03-01T14:52:06;31.45;;;15.07;;
75009;SDS011;63564;46.840;18.336;2023-03-01T14:55:19;33.95;;;14.82;;
75009;SDS011;63564;46.840;18.336;2023-03-01T14:58:23;28.00;;;13.88;;
75009;SDS011;63564;46.840;18.336;2023-03-01T15:01:25;25.30;;;12.43;;
75009;SDS011;63564;46.840;18.336;2023-03-01T15:04:26;24.63;;;12.60;;
75009;SDS011;63564;46.840;18.336;2023-03-01T15:07:30;25.63;;;11.90;;
75009;SDS011;63564;46.840;18.336;2023-03-01T15:10:34;22.55;;;11.32;;
75009;SDS011;63564;46.840;18.336;2023-03-01T15:13:36;23.83;;;11.98;;
75009;SDS011;63564;46.840;18.336;2023-03-01T15:16:38;24.07;;;12.57;;
75009;SDS011;63564;46.840;18.336;2023-03-01T15:19:41;24.38;;;11.95;;
75009;SDS011;63564;46.840;18.336;2023-03-01T15:22:43;22.63;;;12.63;;
75009;SDS011;63564;46.840;18.336;2023-03-01T15:25:48;24.73;;;13.55;;
75009;SDS011;63564;46.840;18.336;2023-03-01T15:28:57;31.98;;;14.15;;
75009;SDS011;63564;46.840;18.336;2023-03-01T15:32:03;29.52;;;14.02;;
75009;SDS011;63564;46.840;18.336;2023-03-01T15:38:52;24.80;;;13.00;;
75009;SDS011;63564;46.840;18.336;2023-03-01T15:41:56;27.20;;;14.73;;
75009;SDS011;63564;46.840;18.336;2023-03-01T15:48:17;29.73;;;15.40;;
75009;SDS011;63564;46.840;18.336;2023-03-01T15:51:22;32.53;;;16.80;;
75009;SDS011;63564;46.840;18.336;2023-03-01T15:54:43;33.00;;;17.55;;
75009;SDS011;63564;46.840;18.336;2023-03-01T15:57:43;34.70;;;16.50;;
75009;SDS011;63564;46.840;18.336;2023-03-01T16:00:45;38.30;;;16.88;;
75009;SDS011;63564;46.840;18.336;2023-03-01T16:03:48;37.03;;;18.25;;
75009;SDS011;63564;46.840;18.336;2023-03-01T16:06:52;36.87;;;19.87;;
75009;SDS011;63564;46.840;18.336;2023-03-01T16:09:56;37.53;;;19.13;;
75009;SDS011;63564;46.840;18.336;2023-03-01T16:12:57;37.38;;;17.55;;
75009;SDS011;63564;46.840;18.336;2023-03-01T16:15:58;37.10;;;17.70;;
75009;SDS011;63564;46.840;18.336;2023-03-01T16:18:59;38.60;;;18.15;;
75009;SDS011;63564;46.840;18.336;2023-03-01T16:21:59;44.40;;;20.43;;
75009;SDS011;63564;46.840;18.336;2023-03-01T16:25:00;46.88;;;21.02;;
75009;SDS011;63564;46.840;18.336;2023-03-01T16:28:02;39.70;;;18.70;;
75009;SDS011;63564;46.840;18.336;2023-03-01T16:31:08;30.33;;;14.90;;
75009;SDS011;63564;46.840;18.336;2023-03-01T16:34:09;40.92;;;21.35;;
75009;SDS011;63564;46.840;18.336;2023-03-01T16:37:10;43.72;;;22.55;;
75009;SDS011;63564;46.840;18.336;2023-03-01T16:40:18;30.55;;;15.10;;
75009;SDS011;63564;46.840;18.336;2023-03-01T16:43:24;33.17;;;16.60;;
75009;SDS011;63564;46.840;18.336;2023-03-01T16:46:26;40.70;;;17.73;;
75009;SDS011;63564;46.840;18.336;2023-03-01T16:49:28;40.72;;;18.35;;
75009;SDS011;63564;46.840;18.336;2023-03-01T16:52:28;42.17;;;17.77;;
75009;SDS011;63564;46.840;18.336;2023-03-01T16:55:28;44.63;;;19.23;;
75009;SDS011;63564;46.840;18.336;2023-03-01T16:58:30;39.40;;;18.80;;
75009;SDS011;63564;46.840;18.336;2023-03-01T17:01:31;34.90;;;15.73;;
75009;SDS011;63564;46.840;18.336;2023-03-01T17:04:37;29.05;;;15.18;;
75009;SDS011;63564;46.840;18.336;2023-03-01T17:07:38;31.47;;;15.77;;
75009;SDS011;63564;46.840;18.336;2023-03-01T17:10:39;33.97;;;17.02;;
75009;SDS011;63564;46.840;18.336;2023-03-01T17:13:42;30.67;;;14.88;;
75009;SDS011;63564;46.840;18.336;2023-03-01T17:16:43;31.60;;;16.40;;
75009;SDS011;63564;46.840;18.336;2023-03-01T17:19:44;33.78;;;16.17;;
75009;SDS011;63564;46.840;18.336;2023-03-01T17:22:45;30.15;;;15.48;;
75009;SDS011;63564;46.840;18.336;2023-03-01T17:25:45;29.10;;;14.17;;
75009;SDS011;63564;46.840;18.336;2023-03-01T17:28:47;27.17;;;14.10;;
75009;SDS011;63564;46.840;18.336;2023-03-01T17:31:50;30.33;;;15.18;;
75009;SDS011;63564;46.840;18.336;2023-03-01T17:34:53;33.30;;;17.52;;
75009;SDS011;63564;46.840;18.336;2023-03-01T17:37:54;32.07;;;16.33;;
75009;SDS011;63564;46.840;18.336;2023-03-01T17:40:57;33.53;;;16.85;;
75009;SDS011;63564;46.840;18.336;2023-03-01T17:43:59;32.73;;;16.93;;
75009;SDS011;63564;46.840;18.336;2023-03-01T17:47:00;46.13;;;26.70;;
75009;SDS011;63564;46.840;18.336;2023-03-01T17:50:01;48.20;;;29.87;;
75009;SDS011;63564;46.840;18.336;2023-03-01T17:53:05;47.55;;;26.67;;
75009;SDS011;63564;46.840;18.336;2023-03-01T17:56:09;36.70;;;20.35;;
75009;SDS011;63564;46.840;18.336;2023-03-01T17:59:10;33.88;;;18.38;;
75009;SDS011;63564;46.840;18.336;2023-03-01T18:02:12;36.33;;;17.38;;
75009;SDS011;63564;46.840;18.336;2023-03-01T18:05:13;30.63;;;15.67;;
75009;SDS011;63564;46.840;18.336;2023-03-01T18:08:13;34.50;;;16.33;;
75009;SDS011;63564;46.840;18.336;2023-03-01T18:11:14;30.70;;;15.43;;
75009;SDS011;63564;46.840;18.336;2023-03-01T18:14:14;32.67;;;16.53;;
75009;SDS011;63564;46.840;18.336;2023-03-01T18:17:15;32.38;;;15.63;;
75009;SDS011;63564;46.840;18.336;2023-03-01T18:20:16;29.48;;;15.60;;
75009;SDS011;63564;46.840;18.336;2023-03-01T18:23:19;32.38;;;15.40;;
75009;SDS011;63564;46.840;18.336;2023-03-01T18:26:20;34.15;;;16.25;;
75009;SDS011;63564;46.840;18.336;2023-03-01T18:29:21;36.03;;;17.00;;
75009;SDS011;63564;46.840;18.336;2023-03-01T18:32:22;33.27;;;17.07;;
75009;SDS011;63564;46.840;18.336;2023-03-01T18:35:24;31.65;;;15.82;;
75009;SDS011;63564;46.840;18.336;2023-03-01T18:38:25;30.00;;;15.87;;
75009;SDS011;63564;46.840;18.336;2023-03-01T18:41:28;34.33;;;16.27;;
75009;SDS011;63564;46.840;18.336;2023-03-01T18:44:29;31.67;;;17.05;;
75009;SDS011;63564;46.840;18.336;2023-03-01T18:47:30;35.03;;;17.73;;
75009;SDS011;63564;46.840;18.336;2023-03-01T18:50:31;38.07;;;18.43;;
75009;SDS011;63564;46.840;18.336;2023-03-01T18:53:31;33.20;;;16.65;;
75009;SDS011;63564;46.840;18.336;2023-03-01T18:56:33;39.07;;;18.40;;
75009;SDS011;63564;46.840;18.336;2023-03-01T18:59:34;39.97;;;18.13;;
75009;SDS011;63564;46.840;18.336;2023-03-01T19:02:35;39.50;;;18.52;;
75009;SDS011;63564;46.840;18.336;2023-03-01T19:05:36;42.70;;;19.15;;
75009;SDS011;63564;46.840;18.336;2023-03-01T19:08:40;38.53;;;18.27;;
75009;SDS011;63564;46.840;18.336;2023-03-01T19:11:43;36.15;;;18.42;;
75009;SDS011;63564;46.840;18.336;2023-03-01T19:14:44;36.65;;;17.77;;
75009;SDS011;63564;46.840;18.336;2023-03-01T19:17:44;38.10;;;17.67;;
75009;SDS011;63564;46.840;18.336;2023-03-01T19:20:45;40.47;;;18.38;;
75009;SDS011;63564;46.840;18.336;2023-03-01T19:23:47;39.03;;;19.47;;